ADDS METAR Data INFO
IDs: Format: Raw Decoded Include TAF

Data at: 0931 UTC 17 Oct 2017

KCAO 170855Z AUTO 30007KT 10SM CLR 09/M02 A3020 RMK AO2 SLP183 T00941022 58007
KCAO 170755Z AUTO 30007KT 10SM CLR 05/00 A3022 RMK AO2 SLP199 T00500000
KCAO 170655Z AUTO 23009KT 10SM CLR 09/02 A3021 RMK AO2 SLP190 T00940017 402170039
KCAO 170555Z AUTO 24011KT 10SM CLR 09/02 A3022 RMK AO2 SLP199 T00890022 10172 20083 58010
KCAO 170455Z AUTO 24010KT 10SM CLR 10/02 A3024 RMK AO2 SLP205 T01000022
KCAO 170355Z AUTO 24007KT 10SM CLR 10/02 A3025 RMK AO2 SLP214 T01000022
KCAO 170255Z AUTO 24007KT 10SM CLR 10/02 A3026 RMK AO2 SLP223 T01000022 51006
KCAO 170243Z AUTO 23006KT 3SM HZ CLR 10/02 A3026 RMK AO2 T01000022
KCAO 170233Z AUTO 24005KT 1 3/4SM HZ CLR 11/02 A3026 RMK AO2 VIS 1/2V5 T01110022
KCAO 170155Z AUTO 21005KT 10SM CLR 11/02 A3026 RMK AO2 SLP228 T01060017
KCAO 170055Z AUTO 22008KT 10SM CLR 15/01 A3025 RMK AO2 SLP222 T01500011
KCAO 162355Z AUTO 21011KT 10SM CLR 18/01 A3024 RMK AO2 SLP209 T01780011 10217 20172 56007
KCAO 162255Z AUTO 19016KT 10SM CLR 21/01 A3024 RMK AO2 SLP207 T02060011
KCAO 162155Z AUTO 20015KT 10SM CLR 21/01 A3025 RMK AO2 SLP211 T02110006
KCAO 162055Z AUTO 21016G22KT 10SM CLR 21/01 A3026 RMK AO2 SLP214 T02110006 56028
KCAO 161955Z AUTO 20017KT 10SM CLR 21/01 A3029 RMK AO2 SLP223 T02060011
KCAO 161855Z AUTO 20016KT 10SM CLR 19/02 A3033 RMK AO2 SLP238 T01890022
KCAO 161755Z AUTO 21015G22KT 10SM CLR 17/02 A3036 RMK AO2 SLP254 T01720017 10178 20039 58014
KCAO 161655Z AUTO 21019G25KT 10SM CLR 16/01 A3038 RMK AO2 PK WND 21030/1602 SLP261 T01610006
KCAO 161555Z AUTO 22019G27KT 10SM CLR 13/M01 A3039 RMK AO2 PK WND 22027/1550 SLP271 T01331006
KCAO 161455Z AUTO 20015KT 10SM CLR 09/01 A3040 RMK AO2 SLP281 T00940006 55001
KCAO 161355Z AUTO 22010KT 10SM CLR 06/M01 A3040 RMK AO2 SLP284 T00561006
KCAO 161255Z AUTO 22010KT 10SM CLR 04/M01 A3040 RMK AO2 SLP289 T00391011
KCAO 161155Z AUTO 22009KT 10SM CLR 05/M01 A3041 RMK AO2 SLP281 T00501011 10056 20039 56008
KCAO 161055Z AUTO 24011KT 10SM CLR 04/M02 A3041 RMK AO2 SLP278 T00441017
KCAO 160955Z AUTO 24007KT 10SM CLR 04/M02 A3042 RMK AO2 SLP279 T00391017
KCAO 160855Z AUTO 25009KT 10SM CLR 04/M02 A3043 RMK AO2 SLP287 T00441017 58008
KCAO 160755Z AUTO 25008KT 10SM CLR 04/M02 A3045 RMK AO2 SLP292 T00441017
KCAO 160655Z AUTO 25008KT 10SM CLR 05/M02 A3046 RMK AO2 SLP295 T00501017 401561028
KCAO 160555Z AUTO 25008KT 10SM CLR 05/M02 A3046 RMK AO2 SLP298 T00501017 10117 20050 50001
KCAO 160455Z AUTO 25009KT 10SM CLR 06/M02 A3047 RMK AO2 SLP302 T00561017
KCAO 160355Z AUTO 24008KT 10SM CLR 06/M02 A3047 RMK AO2 SLP308 T00561022
KCAO 160255Z AUTO 22010KT 10SM CLR 07/M03 A3046 RMK AO2 SLP304 T00721028 50005
KCAO 160155Z AUTO 21009KT 10SM CLR 08/M02 A3046 RMK AO2 SLP311 T00831022
KCAO 160055Z AUTO 20010KT 10SM CLR 08/M02 A3045 RMK AO2 SLP315 T00781022
KCAO 152355Z AUTO 20008KT 10SM CLR 12/M02 A3044 RMK AO2 SLP302 T01171022 10156 20117 55003
KCAO 152255Z AUTO 20008KT 10SM CLR 14/M05 A3044 RMK AO2 SLP297 T01441050
KCAO 152155Z AUTO 19011KT 10SM CLR 16/M04 A3044 RMK AO2 SLP292 T01561039